sensor_id;sensor_type;location;lat;lon;timestamp;P1;durP1;ratioP1;P2;durP2;ratioP2
65831;SDS011;52593;42.648;23.332;2022-12-29T00:01:47;51.70;;;21.75;;
65831;SDS011;52593;42.648;23.332;2022-12-29T00:04:13;53.60;;;22.90;;
65831;SDS011;52593;42.648;23.332;2022-12-29T00:06:39;49.28;;;23.73;;
65831;SDS011;52593;42.648;23.332;2022-12-29T00:09:05;46.93;;;21.93;;
65831;SDS011;52593;42.648;23.332;2022-12-29T00:11:30;47.10;;;21.97;;
65831;SDS011;52593;42.648;23.332;2022-12-29T00:13:56;51.03;;;22.25;;
65831;SDS011;52593;42.648;23.332;2022-12-29T00:16:40;49.30;;;21.80;;
65831;SDS011;52593;42.648;23.332;2022-12-29T00:19:08;47.38;;;20.25;;
65831;SDS011;52593;42.648;23.332;2022-12-29T00:21:53;49.83;;;21.25;;
65831;SDS011;52593;42.648;23.332;2022-12-29T00:24:38;48.08;;;20.15;;
65831;SDS011;52593;42.648;23.332;2022-12-29T00:27:18;46.95;;;20.48;;
65831;SDS011;52593;42.648;23.332;2022-12-29T00:30:07;47.10;;;20.57;;
65831;SDS011;52593;42.648;23.332;2022-12-29T00:32:53;48.83;;;20.92;;
65831;SDS011;52593;42.648;23.332;2022-12-29T00:35:38;48.75;;;20.27;;
65831;SDS011;52593;42.648;23.332;2022-12-29T00:38:08;41.35;;;19.58;;
65831;SDS011;52593;42.648;23.332;2022-12-29T00:40:53;43.45;;;19.75;;
65831;SDS011;52593;42.648;23.332;2022-12-29T00:43:37;38.60;;;17.93;;
65831;SDS011;52593;42.648;23.332;2022-12-29T00:46:21;43.08;;;18.85;;
65831;SDS011;52593;42.648;23.332;2022-12-29T00:48:47;42.10;;;19.43;;
65831;SDS011;52593;42.648;23.332;2022-12-29T00:51:30;44.85;;;19.52;;
65831;SDS011;52593;42.648;23.332;2022-12-29T00:53:56;49.53;;;20.53;;
65831;SDS011;52593;42.648;23.332;2022-12-29T00:56:21;44.23;;;19.10;;
65831;SDS011;52593;42.648;23.332;2022-12-29T00:58:46;43.43;;;19.73;;
65831;SDS011;52593;42.648;23.332;2022-12-29T01:01:12;44.17;;;19.93;;
65831;SDS011;52593;42.648;23.332;2022-12-29T01:03:37;37.87;;;18.67;;
65831;SDS011;52593;42.648;23.332;2022-12-29T01:06:04;45.40;;;18.65;;
65831;SDS011;52593;42.648;23.332;2022-12-29T01:08:31;41.70;;;18.13;;
65831;SDS011;52593;42.648;23.332;2022-12-29T01:13:35;41.83;;;18.83;;
65831;SDS011;52593;42.648;23.332;2022-12-29T01:16:03;46.05;;;19.15;;
65831;SDS011;52593;42.648;23.332;2022-12-29T01:18:29;43.73;;;18.47;;
65831;SDS011;52593;42.648;23.332;2022-12-29T01:20:59;40.58;;;17.73;;
65831;SDS011;52593;42.648;23.332;2022-12-29T01:23:26;43.58;;;18.13;;
65831;SDS011;52593;42.648;23.332;2022-12-29T01:25:51;43.53;;;18.60;;
65831;SDS011;52593;42.648;23.332;2022-12-29T01:28:17;42.93;;;18.27;;
65831;SDS011;52593;42.648;23.332;2022-12-29T01:30:42;40.47;;;18.50;;
65831;SDS011;52593;42.648;23.332;2022-12-29T01:33:07;40.67;;;18.23;;
65831;SDS011;52593;42.648;23.332;2022-12-29T01:35:33;42.17;;;18.57;;
65831;SDS011;52593;42.648;23.332;2022-12-29T01:37:58;43.60;;;18.97;;
65831;SDS011;52593;42.648;23.332;2022-12-29T01:40:24;46.80;;;19.60;;
65831;SDS011;52593;42.648;23.332;2022-12-29T01:42:49;45.72;;;19.38;;
65831;SDS011;52593;42.648;23.332;2022-12-29T01:45:16;46.67;;;19.93;;
65831;SDS011;52593;42.648;23.332;2022-12-29T01:50:30;39.55;;;17.10;;
65831;SDS011;52593;42.648;23.332;2022-12-29T01:55:34;39.00;;;17.70;;
65831;SDS011;52593;42.648;23.332;2022-12-29T01:58:05;46.50;;;18.45;;
65831;SDS011;52593;42.648;23.332;2022-12-29T02:00:31;41.90;;;18.17;;
65831;SDS011;52593;42.648;23.332;2022-12-29T02:02:57;39.70;;;16.63;;
65831;SDS011;52593;42.648;23.332;2022-12-29T02:05:25;46.38;;;18.92;;
65831;SDS011;52593;42.648;23.332;2022-12-29T02:07:57;42.05;;;19.15;;
65831;SDS011;52593;42.648;23.332;2022-12-29T02:10:23;41.90;;;17.93;;
65831;SDS011;52593;42.648;23.332;2022-12-29T02:12:51;43.40;;;18.23;;
65831;SDS011;52593;42.648;23.332;2022-12-29T02:15:17;46.00;;;19.63;;
65831;SDS011;52593;42.648;23.332;2022-12-29T02:23:49;39.67;;;16.20;;
65831;SDS011;52593;42.648;23.332;2022-12-29T02:31:31;37.70;;;16.98;;
65831;SDS011;52593;42.648;23.332;2022-12-29T02:42:36;33.25;;;14.02;;
65831;SDS011;52593;42.648;23.332;2022-12-29T02:45:17;39.05;;;15.70;;
65831;SDS011;52593;42.648;23.332;2022-12-29T02:50:26;35.30;;;15.65;;
65831;SDS011;52593;42.648;23.332;2022-12-29T02:53:05;37.03;;;16.07;;
65831;SDS011;52593;42.648;23.332;2022-12-29T02:55:34;39.58;;;16.95;;
65831;SDS011;52593;42.648;23.332;2022-12-29T02:58:09;43.87;;;17.77;;
65831;SDS011;52593;42.648;23.332;2022-12-29T03:00:38;37.78;;;16.10;;
65831;SDS011;52593;42.648;23.332;2022-12-29T03:03:20;39.75;;;16.70;;
65831;SDS011;52593;42.648;23.332;2022-12-29T03:05:57;42.47;;;17.45;;
65831;SDS011;52593;42.648;23.332;2022-12-29T03:11:12;35.63;;;15.70;;
65831;SDS011;52593;42.648;23.332;2022-12-29T03:14:15;37.75;;;15.70;;
65831;SDS011;52593;42.648;23.332;2022-12-29T03:17:09;38.40;;;15.55;;
65831;SDS011;52593;42.648;23.332;2022-12-29T03:19:49;38.83;;;15.38;;
65831;SDS011;52593;42.648;23.332;2022-12-29T03:22:21;38.70;;;16.05;;
65831;SDS011;52593;42.648;23.332;2022-12-29T03:25:06;39.43;;;16.03;;
65831;SDS011;52593;42.648;23.332;2022-12-29T03:27:39;35.13;;;15.27;;
65831;SDS011;52593;42.648;23.332;2022-12-29T03:30:07;33.63;;;14.35;;
65831;SDS011;52593;42.648;23.332;2022-12-29T03:32:46;35.00;;;15.73;;
65831;SDS011;52593;42.648;23.332;2022-12-29T03:35:17;39.15;;;16.33;;
65831;SDS011;52593;42.648;23.332;2022-12-29T03:37:53;35.47;;;14.70;;
65831;SDS011;52593;42.648;23.332;2022-12-29T03:40:23;35.42;;;15.32;;
65831;SDS011;52593;42.648;23.332;2022-12-29T03:42:51;34.88;;;15.50;;
65831;SDS011;52593;42.648;23.332;2022-12-29T03:45:18;37.67;;;16.15;;
65831;SDS011;52593;42.648;23.332;2022-12-29T03:47:44;37.20;;;15.70;;
65831;SDS011;52593;42.648;23.332;2022-12-29T03:50:11;35.20;;;15.47;;
65831;SDS011;52593;42.648;23.332;2022-12-29T03:52:37;37.78;;;15.63;;
65831;SDS011;52593;42.648;23.332;2022-12-29T03:55:03;35.20;;;15.73;;
65831;SDS011;52593;42.648;23.332;2022-12-29T03:57:28;35.57;;;16.17;;
65831;SDS011;52593;42.648;23.332;2022-12-29T03:59:54;35.47;;;15.80;;
65831;SDS011;52593;42.648;23.332;2022-12-29T04:02:19;32.40;;;15.33;;
65831;SDS011;52593;42.648;23.332;2022-12-29T04:04:44;35.50;;;16.00;;
65831;SDS011;52593;42.648;23.332;2022-12-29T04:07:10;35.87;;;16.23;;
65831;SDS011;52593;42.648;23.332;2022-12-29T04:09:36;39.45;;;15.80;;
65831;SDS011;52593;42.648;23.332;2022-12-29T04:12:01;38.23;;;16.07;;
65831;SDS011;52593;42.648;23.332;2022-12-29T04:14:27;38.27;;;16.17;;
65831;SDS011;52593;42.648;23.332;2022-12-29T04:16:52;37.87;;;16.90;;
65831;SDS011;52593;42.648;23.332;2022-12-29T04:19:17;36.17;;;17.17;;
65831;SDS011;52593;42.648;23.332;2022-12-29T04:21:43;38.33;;;17.90;;
65831;SDS011;52593;42.648;23.332;2022-12-29T04:24:08;40.50;;;18.53;;
65831;SDS011;52593;42.648;23.332;2022-12-29T04:26:41;41.67;;;17.70;;
65831;SDS011;52593;42.648;23.332;2022-12-29T04:29:12;39.45;;;17.40;;
65831;SDS011;52593;42.648;23.332;2022-12-29T04:31:38;43.27;;;17.87;;
65831;SDS011;52593;42.648;23.332;2022-12-29T04:34:03;41.13;;;17.23;;
65831;SDS011;52593;42.648;23.332;2022-12-29T04:36:28;37.30;;;17.17;;
65831;SDS011;52593;42.648;23.332;2022-12-29T04:38:54;38.57;;;17.90;;
65831;SDS011;52593;42.648;23.332;2022-12-29T04:41:19;40.17;;;18.23;;
65831;SDS011;52593;42.648;23.332;2022-12-29T04:43:45;48.87;;;20.47;;
65831;SDS011;52593;42.648;23.332;2022-12-29T04:46:10;39.60;;;19.27;;
65831;SDS011;52593;42.648;23.332;2022-12-29T04:48:35;48.20;;;19.37;;
65831;SDS011;52593;42.648;23.332;2022-12-29T04:51:01;44.67;;;19.23;;
65831;SDS011;52593;42.648;23.332;2022-12-29T04:53:26;43.27;;;18.53;;
65831;SDS011;52593;42.648;23.332;2022-12-29T04:55:52;45.92;;;20.45;;
65831;SDS011;52593;42.648;23.332;2022-12-29T04:58:21;44.07;;;19.67;;
65831;SDS011;52593;42.648;23.332;2022-12-29T05:00:46;43.67;;;18.85;;
65831;SDS011;52593;42.648;23.332;2022-12-29T05:03:12;47.73;;;20.50;;
65831;SDS011;52593;42.648;23.332;2022-12-29T05:05:37;45.55;;;19.13;;
65831;SDS011;52593;42.648;23.332;2022-12-29T05:08:03;42.80;;;19.20;;
65831;SDS011;52593;42.648;23.332;2022-12-29T05:10:29;39.63;;;18.33;;
65831;SDS011;52593;42.648;23.332;2022-12-29T05:12:54;49.13;;;20.77;;
65831;SDS011;52593;42.648;23.332;2022-12-29T05:15:20;44.43;;;19.37;;
65831;SDS011;52593;42.648;23.332;2022-12-29T05:20:40;42.15;;;18.20;;
65831;SDS011;52593;42.648;23.332;2022-12-29T05:23:06;43.10;;;19.17;;
65831;SDS011;52593;42.648;23.332;2022-12-29T05:25:42;41.83;;;19.83;;
65831;SDS011;52593;42.648;23.332;2022-12-29T05:28:10;45.05;;;19.73;;
65831;SDS011;52593;42.648;23.332;2022-12-29T05:30:35;42.70;;;19.33;;
65831;SDS011;52593;42.648;23.332;2022-12-29T05:33:00;41.80;;;19.30;;
65831;SDS011;52593;42.648;23.332;2022-12-29T05:35:26;48.83;;;22.83;;
65831;SDS011;52593;42.648;23.332;2022-12-29T05:37:51;52.30;;;21.80;;
65831;SDS011;52593;42.648;23.332;2022-12-29T05:40:17;48.63;;;21.10;;
65831;SDS011;52593;42.648;23.332;2022-12-29T05:42:42;54.53;;;21.47;;
65831;SDS011;52593;42.648;23.332;2022-12-29T05:45:08;50.23;;;21.60;;
65831;SDS011;52593;42.648;23.332;2022-12-29T05:47:34;51.97;;;21.52;;
65831;SDS011;52593;42.648;23.332;2022-12-29T05:50:00;48.33;;;20.77;;
65831;SDS011;52593;42.648;23.332;2022-12-29T05:52:40;48.97;;;20.37;;
65831;SDS011;52593;42.648;23.332;2022-12-29T05:55:06;47.75;;;20.95;;
65831;SDS011;52593;42.648;23.332;2022-12-29T05:57:32;50.20;;;20.60;;
65831;SDS011;52593;42.648;23.332;2022-12-29T05:59:57;47.67;;;20.57;;
65831;SDS011;52593;42.648;23.332;2022-12-29T06:02:23;47.85;;;20.30;;
65831;SDS011;52593;42.648;23.332;2022-12-29T06:04:48;51.80;;;22.23;;
65831;SDS011;52593;42.648;23.332;2022-12-29T06:07:14;49.57;;;22.43;;
65831;SDS011;52593;42.648;23.332;2022-12-29T06:09:39;51.43;;;20.93;;
65831;SDS011;52593;42.648;23.332;2022-12-29T06:12:04;49.77;;;22.80;;
65831;SDS011;52593;42.648;23.332;2022-12-29T06:14:30;51.85;;;22.05;;
65831;SDS011;52593;42.648;23.332;2022-12-29T06:16:55;46.30;;;21.70;;
65831;SDS011;52593;42.648;23.332;2022-12-29T06:19:21;51.27;;;22.87;;
65831;SDS011;52593;42.648;23.332;2022-12-29T06:21:46;46.30;;;21.10;;
65831;SDS011;52593;42.648;23.332;2022-12-29T06:24:12;51.53;;;21.57;;
65831;SDS011;52593;42.648;23.332;2022-12-29T06:26:37;47.23;;;21.67;;
65831;SDS011;52593;42.648;23.332;2022-12-29T06:29:03;47.75;;;21.13;;
65831;SDS011;52593;42.648;23.332;2022-12-29T06:31:28;51.73;;;20.87;;
65831;SDS011;52593;42.648;23.332;2022-12-29T06:33:53;48.07;;;21.10;;
65831;SDS011;52593;42.648;23.332;2022-12-29T06:36:19;47.30;;;19.87;;
65831;SDS011;52593;42.648;23.332;2022-12-29T06:38:44;42.60;;;19.63;;
65831;SDS011;52593;42.648;23.332;2022-12-29T06:41:10;43.70;;;19.40;;
65831;SDS011;52593;42.648;23.332;2022-12-29T06:43:35;44.08;;;19.38;;
65831;SDS011;52593;42.648;23.332;2022-12-29T06:46:03;44.80;;;19.83;;
65831;SDS011;52593;42.648;23.332;2022-12-29T06:48:29;43.67;;;19.77;;
65831;SDS011;52593;42.648;23.332;2022-12-29T06:50:55;41.87;;;20.00;;
65831;SDS011;52593;42.648;23.332;2022-12-29T06:53:20;48.22;;;20.52;;
65831;SDS011;52593;42.648;23.332;2022-12-29T06:55:45;39.40;;;18.50;;
65831;SDS011;52593;42.648;23.332;2022-12-29T06:58:11;42.30;;;18.80;;
65831;SDS011;52593;42.648;23.332;2022-12-29T07:00:36;42.87;;;19.50;;
65831;SDS011;52593;42.648;23.332;2022-12-29T07:03:02;44.20;;;19.40;;
65831;SDS011;52593;42.648;23.332;2022-12-29T07:05:27;42.40;;;19.13;;
65831;SDS011;52593;42.648;23.332;2022-12-29T07:07:53;43.57;;;20.27;;
65831;SDS011;52593;42.648;23.332;2022-12-29T07:10:19;43.33;;;19.65;;
65831;SDS011;52593;42.648;23.332;2022-12-29T07:12:45;45.70;;;19.27;;
65831;SDS011;52593;42.648;23.332;2022-12-29T07:15:10;47.73;;;20.00;;
65831;SDS011;52593;42.648;23.332;2022-12-29T07:17:36;40.87;;;19.07;;
65831;SDS011;52593;42.648;23.332;2022-12-29T07:20:01;43.60;;;20.23;;
65831;SDS011;52593;42.648;23.332;2022-12-29T07:22:27;46.50;;;20.17;;
65831;SDS011;52593;42.648;23.332;2022-12-29T07:24:52;44.25;;;19.13;;
65831;SDS011;52593;42.648;23.332;2022-12-29T07:27:17;42.67;;;20.50;;
65831;SDS011;52593;42.648;23.332;2022-12-29T07:29:43;47.40;;;20.40;;
65831;SDS011;52593;42.648;23.332;2022-12-29T07:32:08;48.37;;;20.67;;
65831;SDS011;52593;42.648;23.332;2022-12-29T07:34:34;50.27;;;20.87;;
65831;SDS011;52593;42.648;23.332;2022-12-29T07:36:59;45.93;;;20.87;;
65831;SDS011;52593;42.648;23.332;2022-12-29T07:39:24;46.97;;;20.43;;
65831;SDS011;52593;42.648;23.332;2022-12-29T07:41:50;52.40;;;21.63;;
65831;SDS011;52593;42.648;23.332;2022-12-29T07:44:15;45.77;;;21.50;;
65831;SDS011;52593;42.648;23.332;2022-12-29T07:46:41;49.83;;;21.07;;
65831;SDS011;52593;42.648;23.332;2022-12-29T07:49:06;49.87;;;22.43;;
65831;SDS011;52593;42.648;23.332;2022-12-29T07:51:31;47.77;;;22.03;;
65831;SDS011;52593;42.648;23.332;2022-12-29T07:53:57;44.53;;;21.17;;
65831;SDS011;52593;42.648;23.332;2022-12-29T07:56:25;47.90;;;21.33;;
65831;SDS011;52593;42.648;23.332;2022-12-29T07:58:50;50.87;;;21.30;;
65831;SDS011;52593;42.648;23.332;2022-12-29T08:01:15;43.77;;;21.13;;
65831;SDS011;52593;42.648;23.332;2022-12-29T08:03:41;42.23;;;21.37;;
65831;SDS011;52593;42.648;23.332;2022-12-29T08:06:08;42.37;;;18.73;;
65831;SDS011;52593;42.648;23.332;2022-12-29T08:08:35;41.72;;;18.88;;
65831;SDS011;52593;42.648;23.332;2022-12-29T08:11:00;41.53;;;19.77;;
65831;SDS011;52593;42.648;23.332;2022-12-29T08:13:25;38.27;;;19.43;;
65831;SDS011;52593;42.648;23.332;2022-12-29T08:15:51;41.33;;;18.77;;
65831;SDS011;52593;42.648;23.332;2022-12-29T08:18:16;45.13;;;20.47;;
65831;SDS011;52593;42.648;23.332;2022-12-29T08:20:41;43.00;;;20.43;;
65831;SDS011;52593;42.648;23.332;2022-12-29T08:23:07;43.67;;;20.03;;
65831;SDS011;52593;42.648;23.332;2022-12-29T08:25:32;40.90;;;19.40;;
65831;SDS011;52593;42.648;23.332;2022-12-29T08:27:58;45.43;;;19.47;;
65831;SDS011;52593;42.648;23.332;2022-12-29T08:30:23;45.93;;;20.17;;
65831;SDS011;52593;42.648;23.332;2022-12-29T08:32:48;41.60;;;19.73;;
65831;SDS011;52593;42.648;23.332;2022-12-29T08:35:14;41.93;;;19.37;;
65831;SDS011;52593;42.648;23.332;2022-12-29T08:37:39;43.17;;;19.63;;
65831;SDS011;52593;42.648;23.332;2022-12-29T08:40:05;50.77;;;21.33;;
65831;SDS011;52593;42.648;23.332;2022-12-29T08:42:31;47.47;;;22.73;;
65831;SDS011;52593;42.648;23.332;2022-12-29T08:44:57;52.33;;;22.95;;
65831;SDS011;52593;42.648;23.332;2022-12-29T08:47:23;42.57;;;19.80;;
65831;SDS011;52593;42.648;23.332;2022-12-29T08:49:49;43.30;;;18.63;;
65831;SDS011;52593;42.648;23.332;2022-12-29T08:52:14;43.30;;;19.90;;
65831;SDS011;52593;42.648;23.332;2022-12-29T08:54:39;47.43;;;20.03;;
65831;SDS011;52593;42.648;23.332;2022-12-29T08:57:05;44.27;;;18.93;;
65831;SDS011;52593;42.648;23.332;2022-12-29T08:59:30;36.97;;;17.33;;
65831;SDS011;52593;42.648;23.332;2022-12-29T09:01:55;41.30;;;18.77;;
65831;SDS011;52593;42.648;23.332;2022-12-29T09:04:21;40.63;;;18.87;;
65831;SDS011;52593;42.648;23.332;2022-12-29T09:06:48;43.55;;;18.38;;
65831;SDS011;52593;42.648;23.332;2022-12-29T09:09:14;39.88;;;18.15;;
65831;SDS011;52593;42.648;23.332;2022-12-29T09:11:40;41.33;;;18.03;;
65831;SDS011;52593;42.648;23.332;2022-12-29T09:14:07;40.97;;;18.42;;
65831;SDS011;52593;42.648;23.332;2022-12-29T09:16:33;40.63;;;18.45;;
65831;SDS011;52593;42.648;23.332;2022-12-29T09:18:59;41.95;;;19.27;;
65831;SDS011;52593;42.648;23.332;2022-12-29T09:21:25;43.30;;;18.47;;
65831;SDS011;52593;42.648;23.332;2022-12-29T09:23:50;44.80;;;19.87;;
65831;SDS011;52593;42.648;23.332;2022-12-29T09:26:15;43.83;;;20.43;;
65831;SDS011;52593;42.648;23.332;2022-12-29T09:28:41;43.47;;;20.03;;
65831;SDS011;52593;42.648;23.332;2022-12-29T09:31:07;42.00;;;19.30;;
65831;SDS011;52593;42.648;23.332;2022-12-29T09:33:32;42.53;;;19.03;;
65831;SDS011;52593;42.648;23.332;2022-12-29T09:35:59;43.75;;;19.67;;
65831;SDS011;52593;42.648;23.332;2022-12-29T09:38:24;45.10;;;20.57;;
65831;SDS011;52593;42.648;23.332;2022-12-29T09:40:53;41.28;;;18.85;;
65831;SDS011;52593;42.648;23.332;2022-12-29T09:45:58;40.17;;;19.27;;
65831;SDS011;52593;42.648;23.332;2022-12-29T09:48:34;41.30;;;18.92;;
65831;SDS011;52593;42.648;23.332;2022-12-29T09:51:05;43.10;;;18.98;;
65831;SDS011;52593;42.648;23.332;2022-12-29T09:53:39;46.17;;;18.75;;
65831;SDS011;52593;42.648;23.332;2022-12-29T09:56:16;41.03;;;18.70;;
65831;SDS011;52593;42.648;23.332;2022-12-29T09:58:53;41.33;;;19.83;;
65831;SDS011;52593;42.648;23.332;2022-12-29T10:04:22;48.17;;;21.27;;
65831;SDS011;52593;42.648;23.332;2022-12-29T10:06:52;42.53;;;19.37;;
65831;SDS011;52593;42.648;23.332;2022-12-29T10:09:34;41.72;;;19.75;;
65831;SDS011;52593;42.648;23.332;2022-12-29T10:12:13;38.97;;;18.10;;
65831;SDS011;52593;42.648;23.332;2022-12-29T10:17:37;48.63;;;21.48;;
65831;SDS011;52593;42.648;23.332;2022-12-29T10:20:33;44.97;;;19.48;;
65831;SDS011;52593;42.648;23.332;2022-12-29T10:25:40;38.42;;;18.15;;
65831;SDS011;52593;42.648;23.332;2022-12-29T10:31:15;45.47;;;21.05;;
65831;SDS011;52593;42.648;23.332;2022-12-29T10:33:46;44.45;;;20.10;;
65831;SDS011;52593;42.648;23.332;2022-12-29T10:36:16;43.53;;;20.02;;
65831;SDS011;52593;42.648;23.332;2022-12-29T10:43:53;42.05;;;20.67;;
65831;SDS011;52593;42.648;23.332;2022-12-29T10:46:23;42.25;;;20.10;;
65831;SDS011;52593;42.648;23.332;2022-12-29T10:48:52;46.03;;;21.40;;
65831;SDS011;52593;42.648;23.332;2022-12-29T10:51:22;39.63;;;20.10;;
65831;SDS011;52593;42.648;23.332;2022-12-29T10:53:49;41.13;;;20.90;;
65831;SDS011;52593;42.648;23.332;2022-12-29T10:59:01;44.03;;;21.33;;
65831;SDS011;52593;42.648;23.332;2022-12-29T11:07:29;46.85;;;20.88;;
65831;SDS011;52593;42.648;23.332;2022-12-29T11:09:57;44.75;;;22.25;;
65831;SDS011;52593;42.648;23.332;2022-12-29T11:12:46;46.53;;;20.60;;
65831;SDS011;52593;42.648;23.332;2022-12-29T11:15:21;37.92;;;19.33;;
65831;SDS011;52593;42.648;23.332;2022-12-29T11:17:48;43.93;;;21.53;;
65831;SDS011;52593;42.648;23.332;2022-12-29T11:20:35;44.47;;;20.42;;
65831;SDS011;52593;42.648;23.332;2022-12-29T11:23:04;47.63;;;21.42;;
65831;SDS011;52593;42.648;23.332;2022-12-29T11:25:45;43.08;;;21.38;;
65831;SDS011;52593;42.648;23.332;2022-12-29T11:28:14;44.07;;;21.73;;
65831;SDS011;52593;42.648;23.332;2022-12-29T11:30:41;41.25;;;20.00;;
65831;SDS011;52593;42.648;23.332;2022-12-29T11:33:07;38.67;;;19.67;;
65831;SDS011;52593;42.648;23.332;2022-12-29T11:38:21;42.85;;;20.35;;
65831;SDS011;52593;42.648;23.332;2022-12-29T11:40:50;47.65;;;23.17;;
65831;SDS011;52593;42.648;23.332;2022-12-29T11:43:27;45.13;;;21.43;;
65831;SDS011;52593;42.648;23.332;2022-12-29T11:45:58;61.58;;;32.45;;
65831;SDS011;52593;42.648;23.332;2022-12-29T11:48:26;58.13;;;30.52;;
65831;SDS011;52593;42.648;23.332;2022-12-29T11:50:57;49.97;;;27.08;;
65831;SDS011;52593;42.648;23.332;2022-12-29T11:53:27;49.22;;;22.00;;
65831;SDS011;52593;42.648;23.332;2022-12-29T11:56:08;42.43;;;20.10;;
65831;SDS011;52593;42.648;23.332;2022-12-29T11:58:37;42.80;;;20.00;;
65831;SDS011;52593;42.648;23.332;2022-12-29T12:01:09;43.78;;;20.90;;
65831;SDS011;52593;42.648;23.332;2022-12-29T12:03:43;42.28;;;21.40;;
65831;SDS011;52593;42.648;23.332;2022-12-29T12:06:14;41.95;;;20.05;;
65831;SDS011;52593;42.648;23.332;2022-12-29T12:08:49;42.50;;;21.23;;
65831;SDS011;52593;42.648;23.332;2022-12-29T12:11:18;41.05;;;19.83;;
65831;SDS011;52593;42.648;23.332;2022-12-29T12:13:57;42.50;;;21.10;;
65831;SDS011;52593;42.648;23.332;2022-12-29T12:25:04;38.40;;;18.73;;
65831;SDS011;52593;42.648;23.332;2022-12-29T12:27:39;40.88;;;18.60;;
65831;SDS011;52593;42.648;23.332;2022-12-29T12:30:19;37.63;;;18.30;;
65831;SDS011;52593;42.648;23.332;2022-12-29T12:35:12;35.53;;;16.87;;
65831;SDS011;52593;42.648;23.332;2022-12-29T12:44:05;35.83;;;16.92;;
65831;SDS011;52593;42.648;23.332;2022-12-29T12:54:54;31.73;;;14.93;;
65831;SDS011;52593;42.648;23.332;2022-12-29T13:09:15;37.57;;;16.53;;
65831;SDS011;52593;42.648;23.332;2022-12-29T13:17:33;41.08;;;18.27;;
65831;SDS011;52593;42.648;23.332;2022-12-29T13:23:02;36.37;;;16.30;;
65831;SDS011;52593;42.648;23.332;2022-12-29T13:25:58;35.85;;;16.73;;
65831;SDS011;52593;42.648;23.332;2022-12-29T13:30:57;35.23;;;16.07;;
65831;SDS011;52593;42.648;23.332;2022-12-29T13:36:32;36.63;;;16.83;;
65831;SDS011;52593;42.648;23.332;2022-12-29T13:39:05;36.20;;;16.40;;
65831;SDS011;52593;42.648;23.332;2022-12-29T13:41:38;38.10;;;17.02;;
65831;SDS011;52593;42.648;23.332;2022-12-29T13:44:09;40.35;;;18.50;;
65831;SDS011;52593;42.648;23.332;2022-12-29T13:46:42;41.10;;;19.27;;
65831;SDS011;52593;42.648;23.332;2022-12-29T13:49:16;40.10;;;18.55;;
65831;SDS011;52593;42.648;23.332;2022-12-29T13:51:47;40.53;;;19.67;;
65831;SDS011;52593;42.648;23.332;2022-12-29T13:57:05;39.58;;;18.75;;
65831;SDS011;52593;42.648;23.332;2022-12-29T14:07:48;61.17;;;26.90;;
65831;SDS011;52593;42.648;23.332;2022-12-29T14:10:29;59.42;;;26.30;;
65831;SDS011;52593;42.648;23.332;2022-12-29T14:13:27;59.03;;;26.70;;
65831;SDS011;52593;42.648;23.332;2022-12-29T14:15:52;59.15;;;27.42;;
65831;SDS011;52593;42.648;23.332;2022-12-29T14:18:21;48.30;;;23.03;;
65831;SDS011;52593;42.648;23.332;2022-12-29T14:21:07;52.20;;;23.60;;
65831;SDS011;52593;42.648;23.332;2022-12-29T14:23:43;55.58;;;25.50;;
65831;SDS011;52593;42.648;23.332;2022-12-29T14:28:54;42.30;;;21.40;;
65831;SDS011;52593;42.648;23.332;2022-12-29T14:36:41;49.33;;;22.30;;
65831;SDS011;52593;42.648;23.332;2022-12-29T14:47:31;49.38;;;21.83;;
65831;SDS011;52593;42.648;23.332;2022-12-29T14:52:39;54.50;;;23.75;;
65831;SDS011;52593;42.648;23.332;2022-12-29T14:57:40;59.87;;;27.20;;
65831;SDS011;52593;42.648;23.332;2022-12-29T15:00:14;56.63;;;25.63;;
65831;SDS011;52593;42.648;23.332;2022-12-29T15:03:14;73.80;;;32.60;;
65831;SDS011;52593;42.648;23.332;2022-12-29T15:05:45;72.65;;;31.35;;
65831;SDS011;52593;42.648;23.332;2022-12-29T15:08:16;70.30;;;30.73;;
65831;SDS011;52593;42.648;23.332;2022-12-29T15:10:48;71.67;;;29.10;;
65831;SDS011;52593;42.648;23.332;2022-12-29T15:13:22;63.05;;;28.15;;
65831;SDS011;52593;42.648;23.332;2022-12-29T15:15:50;66.28;;;27.60;;
65831;SDS011;52593;42.648;23.332;2022-12-29T15:18:28;58.92;;;26.17;;
65831;SDS011;52593;42.648;23.332;2022-12-29T15:20:56;55.83;;;24.85;;
65831;SDS011;52593;42.648;23.332;2022-12-29T15:23:24;62.43;;;26.03;;
65831;SDS011;52593;42.648;23.332;2022-12-29T15:25:53;63.78;;;26.40;;
65831;SDS011;52593;42.648;23.332;2022-12-29T15:28:21;81.15;;;30.10;;
65831;SDS011;52593;42.648;23.332;2022-12-29T15:31:02;80.78;;;32.08;;
65831;SDS011;52593;42.648;23.332;2022-12-29T15:33:29;90.40;;;32.72;;
65831;SDS011;52593;42.648;23.332;2022-12-29T15:35:55;84.13;;;30.47;;
65831;SDS011;52593;42.648;23.332;2022-12-29T15:38:26;71.93;;;29.33;;
65831;SDS011;52593;42.648;23.332;2022-12-29T15:40:54;69.07;;;28.75;;
65831;SDS011;52593;42.648;23.332;2022-12-29T15:46:06;49.60;;;22.30;;
65831;SDS011;52593;42.648;23.332;2022-12-29T15:48:31;49.38;;;21.95;;
65831;SDS011;52593;42.648;23.332;2022-12-29T15:50:57;47.50;;;20.73;;
65831;SDS011;52593;42.648;23.332;2022-12-29T15:53:25;51.38;;;21.50;;
65831;SDS011;52593;42.648;23.332;2022-12-29T15:55:57;55.08;;;22.05;;
65831;SDS011;52593;42.648;23.332;2022-12-29T15:58:28;56.63;;;24.85;;
65831;SDS011;52593;42.648;23.332;2022-12-29T16:00:56;53.37;;;24.17;;
65831;SDS011;52593;42.648;23.332;2022-12-29T16:03:23;52.63;;;22.50;;
65831;SDS011;52593;42.648;23.332;2022-12-29T16:06:06;49.42;;;21.67;;
65831;SDS011;52593;42.648;23.332;2022-12-29T16:08:55;62.50;;;29.50;;
65831;SDS011;52593;42.648;23.332;2022-12-29T16:14:07;51.63;;;23.30;;
65831;SDS011;52593;42.648;23.332;2022-12-29T16:16:39;54.47;;;22.70;;
65831;SDS011;52593;42.648;23.332;2022-12-29T16:19:29;54.40;;;22.17;;
65831;SDS011;52593;42.648;23.332;2022-12-29T16:22:00;50.92;;;21.17;;
65831;SDS011;52593;42.648;23.332;2022-12-29T16:24:28;51.88;;;20.70;;
65831;SDS011;52593;42.648;23.332;2022-12-29T16:26:58;64.93;;;26.13;;
65831;SDS011;52593;42.648;23.332;2022-12-29T16:29:24;61.08;;;24.30;;
65831;SDS011;52593;42.648;23.332;2022-12-29T16:31:55;62.03;;;23.67;;
65831;SDS011;52593;42.648;23.332;2022-12-29T16:37:03;60.00;;;24.83;;
65831;SDS011;52593;42.648;23.332;2022-12-29T16:39:31;63.67;;;25.57;;
65831;SDS011;52593;42.648;23.332;2022-12-29T16:42:32;68.63;;;26.08;;
65831;SDS011;52593;42.648;23.332;2022-12-29T16:50:39;54.10;;;23.70;;
65831;SDS011;52593;42.648;23.332;2022-12-29T16:53:06;53.85;;;22.25;;
65831;SDS011;52593;42.648;23.332;2022-12-29T16:55:47;49.63;;;21.63;;
65831;SDS011;52593;42.648;23.332;2022-12-29T16:58:27;54.97;;;22.13;;
65831;SDS011;52593;42.648;23.332;2022-12-29T17:00:56;56.13;;;22.10;;
65831;SDS011;52593;42.648;23.332;2022-12-29T17:03:32;46.05;;;20.17;;
65831;SDS011;52593;42.648;23.332;2022-12-29T17:06:05;57.95;;;21.98;;
65831;SDS011;52593;42.648;23.332;2022-12-29T17:08:39;73.43;;;27.27;;